Time;durP1;ratioP1;P1;durP2;ratioP2;P2;SDS_P1;SDS_P2;PMS_P1;PMS_P2;Temp;Humidity;BMP_temperature;BMP_pressure;BME280_temperature;BME280_humidity;BME280_pressure;Samples;Min_cycle;Max_cycle;Signal;HPM_P1;HPM_P2
2022/01/26 00:09:54;;;;;;;73.87;34.25;;;;;;;0.69;100.00;100039.34;4038988;86;21726;-88
2022/01/26 00:15:58;;;;;;;74.87;32.93;;;;;;;0.71;100.00;100035.80;3982348;88;21545;-89
2022/01/26 00:21:59;;;;;;;80.97;36.03;;;;;;;0.69;100.00;100024.52;3997984;88;21129;-90
2022/01/26 00:40:37;;;;;;;69.47;32.70;;;;;;;0.65;100.00;100026.98;4004063;87;21186;-87
2022/01/26 00:46:38;;;;;;;74.30;33.58;;;;;;;0.66;100.00;100030.48;3972631;88;21087;-89
2022/01/26 00:58:41;;;;;;;75.80;35.17;;;;;;;0.72;100.00;100037.42;4003094;87;21110;-89
2022/01/26 01:04:42;;;;;;;69.60;30.77;;;;;;;0.70;100.00;100025.58;4012726;86;21106;-89
2022/01/26 01:10:47;;;;;;;71.77;32.13;;;;;;;0.69;100.00;100021.27;4008732;87;21078;-87
2022/01/26 01:16:49;;;;;;;64.97;31.10;;;;;;;0.68;100.00;100028.28;3950392;88;21095;-88
2022/01/26 01:29:27;;;;;;;69.30;32.33;;;;;;;0.69;100.00;100021.83;4030722;86;21115;-89
2022/01/26 01:35:23;;;;;;;60.63;28.98;;;;;;;0.69;100.00;100025.30;4031293;86;21122;-87
2022/01/26 01:41:24;;;;;;;63.25;30.35;;;;;;;0.72;100.00;100011.25;4014620;86;21323;-88
2022/01/26 01:47:25;;;;;;;68.02;31.73;;;;;;;0.70;100.00;100008.06;3944066;88;21114;-88
2022/01/26 01:53:39;;;;;;;69.42;32.25;;;;;;;0.68;100.00;100009.42;3916677;88;21856;-88
2022/01/26 01:59:37;;;;;;;63.35;28.92;;;;;;;0.68;100.00;100002.16;3946063;89;21102;-89
2022/01/26 02:05:38;;;;;;;63.23;29.27;;;;;;;0.65;100.00;100003.26;3999612;87;21076;-89
2022/01/26 02:11:53;;;;;;;58.78;27.22;;;;;;;0.65;100.00;99997.34;4013648;87;21102;-89
2022/01/26 02:55:53;;;;;;;60.95;28.25;;;;;;;0.86;100.00;99977.70;3960482;88;21067;-90
2022/01/26 03:01:54;;;;;;;61.37;30.00;;;;;;;0.84;100.00;99973.95;3971545;88;21147;-90
2022/01/26 03:07:57;;;;;;;62.60;29.52;;;;;;;0.78;100.00;99968.36;4012794;86;21674;-89
2022/01/26 03:14:05;;;;;;;62.60;30.23;;;;;;;0.78;100.00;99966.20;3953457;87;21079;-88
2022/01/26 03:20:05;;;;;;;70.50;30.95;;;;;;;0.78;100.00;99960.28;4024545;86;22227;-89
2022/01/26 03:38:48;;;;;;;75.05;28.83;;;;;;;0.72;100.00;99963.31;4008554;86;21098;-88
2022/01/26 03:44:47;;;;;;;79.05;32.23;;;;;;;0.72;100.00;99959.27;4008509;86;21605;-90
2022/01/26 03:50:49;;;;;;;70.97;30.37;;;;;;;0.71;100.00;99961.16;4015282;86;21182;-89
2022/01/26 03:56:50;;;;;;;76.45;30.25;;;;;;;0.68;100.00;99951.48;4003954;86;1470293;-89
2022/01/26 04:02:53;;;;;;;69.60;29.18;;;;;;;0.69;100.00;99945.80;4052202;85;21386;-90
2022/01/26 04:08:55;;;;;;;63.52;27.27;;;;;;;0.70;100.00;99952.82;4119706;84;21051;-88
2022/01/26 04:15:03;;;;;;;71.67;30.77;;;;;;;0.68;100.00;99960.91;4086798;84;21130;-90
2022/01/26 04:21:06;;;;;;;69.80;28.62;;;;;;;0.64;100.00;99953.97;4147399;83;21090;-92
2022/01/26 04:27:20;;;;;;;62.80;29.87;;;;;;;0.66;100.00;99953.12;4145593;83;21605;-88
2022/01/26 04:33:17;;;;;;;74.80;32.60;;;;;;;0.70;100.00;99952.82;4145442;84;21110;-88
2022/01/26 04:39:25;;;;;;;74.70;31.30;;;;;;;0.72;100.00;99957.92;4134555;83;21084;-88
2022/01/26 04:45:22;;;;;;;81.47;32.55;;;;;;;0.69;100.00;99947.72;4127869;84;21059;-89
2022/01/26 04:51:23;;;;;;;84.10;33.45;;;;;;;0.70;100.00;99945.27;4132114;83;21537;-87
2022/01/26 04:57:24;;;;;;;79.05;34.40;;;;;;;0.72;100.00;99944.45;4147720;83;21065;-89
2022/01/26 05:03:26;;;;;;;77.15;32.35;;;;;;;0.72;100.00;99948.48;4075925;84;21055;-88
2022/01/26 05:09:27;;;;;;;82.17;31.80;;;;;;;0.69;100.00;99945.80;4155260;83;21003;-89
2022/01/26 05:15:29;;;;;;;72.95;32.30;;;;;;;0.65;100.00;99944.78;4117846;84;21062;-89
2022/01/26 05:21:32;;;;;;;79.50;31.23;;;;;;;0.65;100.00;99940.75;4143044;84;21103;-89
2022/01/26 05:27:34;;;;;;;80.03;32.65;;;;;;;0.63;100.00;99952.88;4121710;83;21262;-88
2022/01/26 05:33:36;;;;;;;68.55;28.23;;;;;;;0.59;100.00;99933.81;4137647;84;21600;-91
2022/01/26 05:39:40;;;;;;;72.53;30.97;;;;;;;0.62;100.00;99928.38;4114892;83;21082;-90
2022/01/26 05:45:46;;;;;;;84.50;33.78;;;;;;;0.60;100.00;99927.33;4110942;84;21047;-89
2022/01/26 05:51:51;;;;;;;74.40;30.45;;;;;;;0.61;100.00;99922.19;4135875;83;21205;-89
2022/01/26 05:57:56;;;;;;;77.82;31.30;;;;;;;0.59;100.00;99918.19;4151089;83;21044;-88
2022/01/26 06:03:58;;;;;;;77.20;32.00;;;;;;;0.56;100.00;99914.19;4120324;83;21062;-89
2022/01/26 06:10:00;;;;;;;80.62;30.52;;;;;;;0.51;100.00;99920.97;4153246;83;21166;-89
2022/01/26 06:16:20;;;;;;;86.70;31.85;;;;;;;0.47;100.00;99916.45;4145825;83;20995;-89
2022/01/26 06:22:21;;;;;;;74.87;31.00;;;;;;;0.45;100.00;99923.47;4139786;83;21098;-88
2022/01/26 06:28:27;;;;;;;73.70;31.05;;;;;;;0.44;100.00;99921.84;4150398;84;21070;-90
2022/01/26 06:34:28;;;;;;;79.47;31.10;;;;;;;0.44;100.00;99919.15;4141496;83;21011;-88
2022/01/26 06:40:29;;;;;;;76.20;30.92;;;;;;;0.42;100.00;99921.88;4150300;84;21061;-89
2022/01/26 06:46:42;;;;;;;81.08;32.45;;;;;;;0.41;100.00;99914.91;4143126;84;21105;-87
2022/01/26 06:52:34;;;;;;;75.97;31.05;;;;;;;0.44;100.00;99918.37;4127226;84;21748;-90
2022/01/26 06:58:35;;;;;;;70.12;30.72;;;;;;;0.43;100.00;99915.39;4155981;84;21086;-88
2022/01/26 07:04:37;;;;;;;72.75;30.80;;;;;;;0.47;100.00;99912.41;4138063;83;21125;-87
2022/01/26 07:10:38;;;;;;;67.15;29.87;;;;;;;0.47;100.00;99913.75;4139877;84;22451;-91
2022/01/26 07:23:42;;;;;;;70.50;31.93;;;;;;;0.50;100.00;99913.95;4145750;84;21023;-88
2022/01/26 07:30:08;;;;;;;68.12;32.20;;;;;;;0.51;100.00;99916.93;4011291;85;21757;-87
2022/01/26 07:36:12;;;;;;;74.70;33.05;;;;;;;0.52;100.00;99909.09;3998456;86;21104;-88
2022/01/26 07:42:16;;;;;;;79.00;34.98;;;;;;;0.53;100.00;99912.06;4113102;83;21071;-88
2022/01/26 07:48:19;;;;;;;76.02;34.50;;;;;;;0.55;100.00;99914.47;3960531;86;21401;-89
2022/01/26 07:54:33;;;;;;;67.05;30.88;;;;;;;0.55;100.00;99913.91;4004992;86;22139;-89
2022/01/26 08:00:35;;;;;;;67.35;31.62;;;;;;;0.60;100.00;99913.04;4003831;86;21340;-88
2022/01/26 08:06:36;;;;;;;56.73;27.77;;;;;;;0.62;100.00;99917.07;4138866;83;21118;-89
2022/01/26 08:12:39;;;;;;;59.55;28.10;;;;;;;0.66;100.00;99916.73;4058575;85;21059;-90
2022/01/26 08:18:40;;;;;;;57.62;27.37;;;;;;;0.68;100.00;99910.53;4004237;86;21168;-90
2022/01/26 08:24:42;;;;;;;46.60;23.92;;;;;;;0.71;100.00;99911.83;4002272;86;21166;-89
2022/01/26 08:30:44;;;;;;;54.42;24.65;;;;;;;0.73;100.00;99903.73;4018153;85;21351;-89
2022/01/26 08:36:45;;;;;;;53.78;25.92;;;;;;;0.75;100.00;99903.45;4008081;86;21051;-88
2022/01/26 08:42:49;;;;;;;57.50;27.02;;;;;;;0.78;100.00;99908.25;4003377;86;21110;-87
2022/01/26 08:48:50;;;;;;;65.40;28.42;;;;;;;0.79;100.00;99909.31;4013294;86;21109;-89
2022/01/26 08:54:51;;;;;;;82.02;34.48;;;;;;;0.81;100.00;99914.41;4154541;83;22264;-89
2022/01/26 09:00:54;;;;;;;62.73;30.37;;;;;;;0.85;100.00;99920.81;4139148;83;21574;-89
2022/01/26 09:07:14;;;;;;;64.87;28.95;;;;;;;0.86;100.00;99922.44;4112509;83;21507;-88
2022/01/26 09:13:13;;;;;;;64.35;31.75;;;;;;;0.88;100.00;99922.94;4125900;83;21067;-89
2022/01/26 09:19:30;;;;;;;63.38;29.57;;;;;;;0.93;100.00;99932.31;4144277;84;21378;-87
2022/01/26 09:25:58;;;;;;;79.70;33.60;;;;;;;0.93;100.00;99938.52;4138577;83;21629;-90
2022/01/26 09:32:00;;;;;;;80.80;33.73;;;;;;;0.98;100.00;99935.77;4152460;83;22296;-90
2022/01/26 09:38:01;;;;;;;79.27;34.83;;;;;;;1.05;100.00;99933.50;4126999;82;21072;-90
2022/01/26 09:44:03;;;;;;;73.83;35.35;;;;;;;1.18;100.00;99936.83;4143036;83;21075;-91
2022/01/26 09:50:05;;;;;;;68.37;32.80;;;;;;;1.23;100.00;99940.00;4123804;83;21076;-89
2022/01/26 09:56:07;;;;;;;72.62;34.08;;;;;;;1.26;100.00;99938.88;4146123;83;21743;-90
2022/01/26 10:02:10;;;;;;;72.62;33.78;;;;;;;1.28;100.00;99931.31;4126384;83;21037;-89
2022/01/26 10:20:54;;;;;;;72.22;33.15;;;;;;;1.30;100.00;99927.75;4145830;84;21349;-88
2022/01/26 10:26:59;;;;;;;88.40;38.38;;;;;;;1.28;100.00;99919.17;4116538;84;21071;-90
2022/01/26 10:33:09;;;;;;;85.80;37.17;;;;;;;1.27;100.00;99916.73;4032014;85;21154;-89
2022/01/26 10:39:25;;;;;;;83.92;36.13;;;;;;;1.28;100.00;99912.43;4026230;85;21487;-92
2022/01/26 10:46:04;;;;;;;77.08;34.13;;;;;;;1.31;100.00;99900.23;4055769;84;21155;-91
2022/01/26 10:57:47;;;;;;;85.87;36.87;;;;;;;1.37;100.00;99893.13;4038082;84;22156;-91
2022/01/26 11:03:48;;;;;;;80.57;34.58;;;;;;;1.41;100.00;99873.91;4067491;85;21097;-90
2022/01/26 11:09:50;;;;;;;68.95;29.32;;;;;;;1.47;100.00;99877.34;4064269;84;21902;-90
2022/01/26 11:15:51;;;;;;;76.50;33.08;;;;;;;1.46;100.00;99873.83;4045201;85;21098;-91
2022/01/26 11:21:53;;;;;;;87.90;35.25;;;;;;;1.44;100.00;99865.22;4057211;85;21090;-89
2022/01/26 11:27:56;;;;;;;84.13;36.65;;;;;;;1.47;100.00;99873.30;4144452;83;21098;-91
2022/01/26 11:33:58;;;;;;;92.78;35.15;;;;;;;1.47;100.00;99868.67;4063834;85;21063;-90
2022/01/26 11:46:19;;;;;;;82.53;34.63;;;;;;;1.48;100.00;99858.69;4074779;85;21061;-89
2022/01/26 11:52:26;;;;;;;93.12;38.20;;;;;;;1.47;100.00;99850.36;4070059;85;21645;-89
2022/01/26 11:58:33;;;;;;;103.67;40.92;;;;;;;1.48;100.00;99841.16;4066747;85;21690;-91
2022/01/26 12:04:37;;;;;;;85.87;37.90;;;;;;;1.51;100.00;99835.16;4045040;84;21096;-90
2022/01/26 12:10:38;;;;;;;96.25;38.60;;;;;;;1.53;100.00;99827.59;4121954;83;21133;-91
2022/01/26 12:16:45;;;;;;;91.92;39.73;;;;;;;1.55;100.00;99836.98;4122770;83;21951;-90
2022/01/26 12:41:54;;;;;;;81.10;39.05;;;;;;;1.56;100.00;99806.22;4103620;83;21186;-91
2022/01/26 12:47:58;;;;;;;83.75;38.17;;;;;;;1.56;100.00;99804.87;4111428;84;21504;-90
2022/01/26 12:54:02;;;;;;;89.50;39.03;;;;;;;1.58;100.00;99808.05;4145985;83;21074;-92
2022/01/26 13:00:06;;;;;;;86.42;39.78;;;;;;;1.58;100.00;99797.25;4133233;83;21107;-91
2022/01/26 13:06:23;;;;;;;81.17;36.68;;;;;;;1.58;100.00;99795.13;4142877;83;21313;-92
2022/01/26 13:12:32;;;;;;;84.92;39.63;;;;;;;1.60;100.00;99790.20;4140354;84;21056;-89
2022/01/26 13:24:59;;;;;;;76.33;36.70;;;;;;;1.56;100.00;99785.16;4139706;84;21058;-90
2022/01/26 13:37:42;;;;;;;85.92;37.17;;;;;;;1.55;100.00;99774.13;4011780;86;21672;-91
2022/01/26 13:49:48;;;;;;;70.00;32.15;;;;;;;1.50;100.00;99779.05;4004846;86;21103;-90
2022/01/26 14:01:48;;;;;;;68.25;32.65;;;;;;;1.40;100.00;99780.58;4131671;83;21081;-91
2022/01/26 14:07:50;;;;;;;69.03;36.50;;;;;;;1.41;100.00;99775.97;4105042;83;21521;-91
2022/01/26 14:14:01;;;;;;;64.37;33.98;;;;;;;1.40;100.00;99784.62;4147558;84;21607;-91
2022/01/26 14:26:05;;;;;;;66.55;31.73;;;;;;;1.38;100.00;99786.81;4203680;83;21051;-91
2022/01/26 14:51:10;;;;;;;60.70;29.90;;;;;;;1.29;100.00;99783.20;4208424;81;21063;-89
2022/01/26 16:16:29;;;;;;;53.75;28.15;;;;;;;0.99;100.00;99807.12;4228198;83;21035;-89
2022/01/26 18:13:00;;;;;;;58.33;29.72;;;;;;;0.86;100.00;99758.80;4230467;82;21720;-90
2022/01/26 18:14:05;;;;;;;56.98;29.00;;;;;;;0.88;100.00;99758.50;4239434;82;21055;-90
2022/01/26 18:32:07;;;;;;;52.10;26.48;;;;;;;0.93;100.00;99766.52;4215725;81;21133;-90
2022/01/26 18:50:41;;;;;;;63.95;32.75;;;;;;;0.95;100.00;99764.34;4224923;82;21130;-91
2022/01/26 18:56:42;;;;;;;68.37;32.83;;;;;;;0.92;100.00;99764.39;4232367;82;21069;-89
2022/01/26 19:02:44;;;;;;;68.95;36.90;;;;;;;0.92;100.00;99756.30;4220847;82;21645;-89
2022/01/26 19:08:45;;;;;;;74.82;34.23;;;;;;;0.94;100.00;99760.05;4222349;82;21077;-91
2022/01/26 19:14:56;;;;;;;72.53;36.05;;;;;;;0.95;100.00;99752.20;4208535;83;21150;-91
2022/01/26 19:21:06;;;;;;;75.00;35.60;;;;;;;0.94;100.00;99760.05;4212825;82;21078;-91
2022/01/26 19:27:02;;;;;;;81.53;37.03;;;;;;;0.92;100.00;99760.34;4217973;82;21062;-89
2022/01/26 19:57:51;;;;;;;73.87;34.92;;;;;;;0.93;100.00;99722.03;4218800;82;21070;-91
2022/01/26 20:03:53;;;;;;;72.05;34.25;;;;;;;0.94;100.00;99729.05;4215637;83;21090;-89
2022/01/26 20:09:58;;;;;;;67.87;31.52;;;;;;;0.93;100.00;99724.73;4196784;82;21043;-91
2022/01/26 20:16:01;;;;;;;67.37;32.83;;;;;;;0.95;100.00;99721.20;4211081;82;21090;-90
2022/01/26 20:22:05;;;;;;;62.35;31.35;;;;;;;0.94;100.00;99710.18;4227895;82;21895;-90
2022/01/26 20:28:09;;;;;;;74.90;35.85;;;;;;;0.94;100.00;99705.56;4218156;82;21022;-89
2022/01/26 20:34:14;;;;;;;77.20;35.23;;;;;;;0.92;100.00;99702.92;4213950;82;21626;-90
2022/01/26 20:40:15;;;;;;;78.70;36.42;;;;;;;0.94;100.00;99705.56;4215343;82;21772;-90
2022/01/26 20:46:16;;;;;;;82.10;36.28;;;;;;;0.94;100.00;99707.48;4224168;82;21122;-92
2022/01/26 20:52:18;;;;;;;80.75;36.65;;;;;;;0.94;100.00;99714.22;4221865;83;21724;-88
2022/01/26 20:58:20;;;;;;;75.83;33.10;;;;;;;0.93;100.00;99718.80;4211077;83;21630;-90
2022/01/26 21:04:23;;;;;;;76.28;36.20;;;;;;;0.92;100.00;99721.26;4220311;81;21098;-88
2022/01/26 21:10:25;;;;;;;74.85;34.70;;;;;;;0.91;100.00;99725.03;4220107;82;22350;-89
2022/01/26 21:16:27;;;;;;;70.52;32.98;;;;;;;0.89;100.00;99717.00;4224190;81;21035;-90
2022/01/26 21:22:28;;;;;;;73.90;32.80;;;;;;;0.89;100.00;99725.08;4228305;82;21586;-89
2022/01/26 21:28:37;;;;;;;72.32;34.10;;;;;;;0.88;100.00;99724.81;4222878;82;21130;-88
2022/01/26 21:34:38;;;;;;;72.92;33.00;;;;;;;0.89;100.00;99709.69;4201614;83;21462;-91
2022/01/26 21:40:39;;;;;;;71.28;33.40;;;;;;;0.87;100.00;99714.59;4214176;83;21097;-89
2022/01/26 21:46:43;;;;;;;65.78;30.65;;;;;;;0.87;100.00;99715.12;4223109;83;21094;-89
2022/01/26 21:52:44;;;;;;;64.62;30.88;;;;;;;0.88;100.00;99718.87;4228135;83;21470;-90
2022/01/26 21:58:45;;;;;;;66.77;30.32;;;;;;;0.87;100.00;99702.47;4221622;83;21090;-90
2022/01/26 22:04:46;;;;;;;57.88;27.42;;;;;;;0.87;100.00;99693.03;4221152;81;21095;-90
2022/01/26 22:10:48;;;;;;;59.15;29.18;;;;;;;0.85;100.00;99701.95;4222307;82;21138;-90
2022/01/26 22:16:52;;;;;;;68.52;30.48;;;;;;;0.85;100.00;99710.58;4196267;82;21082;-91
2022/01/26 22:22:53;;;;;;;67.15;30.95;;;;;;;0.83;100.00;99698.73;4226266;83;21113;-89
2022/01/26 22:28:54;;;;;;;61.28;28.50;;;;;;;0.85;100.00;99706.53;4215316;83;21082;-90
2022/01/26 22:34:55;;;;;;;113.90;47.25;;;;;;;0.82;100.00;99704.42;4224473;83;21058;-93
2022/01/26 22:40:56;;;;;;;92.53;40.55;;;;;;;0.82;100.00;99694.45;4221163;82;21047;-88
2022/01/26 22:46:58;;;;;;;74.03;34.05;;;;;;;0.80;100.00;99703.94;4231358;82;21616;-89
2022/01/26 22:52:59;;;;;;;68.97;32.10;;;;;;;0.78;100.00;99702.08;4221674;83;22406;-91
2022/01/26 22:59:01;;;;;;;66.62;30.65;;;;;;;0.75;100.00;99691.32;4227201;82;21066;-90
2022/01/26 23:05:23;;;;;;;62.03;29.85;;;;;;;0.73;100.00;99690.02;4231022;81;21081;-89
2022/01/26 23:11:07;;;;;;;59.33;27.60;;;;;;;0.70;100.00;99687.38;4222347;82;21093;-89
2022/01/26 23:17:09;;;;;;;53.28;24.23;;;;;;;0.66;100.00;99681.53;4216685;82;21086;-89
2022/01/26 23:23:10;;;;;;;65.57;29.25;;;;;;;0.61;100.00;99674.30;4223984;82;21022;-90
2022/01/26 23:29:20;;;;;;;51.63;24.60;;;;;;;0.58;100.00;99660.63;4225562;81;21649;-90
